Time;durP1;ratioP1;P1;durP2;ratioP2;P2;SDS_P1;SDS_P2;PMS_P1;PMS_P2;Temp;Humidity;BMP_temperature;BMP_pressure;BME280_temperature;BME280_humidity;BME280_pressure;Samples;Min_cycle;Max_cycle;Signal;HPM_P1;HPM_P2
2022/10/15 00:09:34;;;;;;;1.17;0.10;;;;;;;14.70;100.00;97380.94;18233001;32;20446;-61
2022/10/15 00:19:37;;;;;;;3.50;0.20;;;;;;;14.73;100.00;97355.00;18232308;32;20377;-61
2022/10/15 00:29:39;;;;;;;1.65;0.00;;;;;;;14.67;100.00;97367.12;18159699;32;20116;-62
2022/10/15 00:39:43;;;;;;;0.65;0.15;;;;;;;14.67;100.00;97378.78;18158546;32;20090;-61
2022/10/15 00:49:54;;;;;;;3.03;0.13;;;;;;;14.71;100.00;97387.97;18146481;32;20066;-61
2022/10/15 01:00:03;;;;;;;0.32;0.00;;;;;;;14.72;100.00;97377.91;18216372;32;20046;-62
2022/10/15 01:10:08;;;;;;;5.32;0.10;;;;;;;14.71;100.00;97362.69;18230383;32;20053;-61
2022/10/15 01:20:32;;;;;;;2.00;0.00;;;;;;;14.69;100.00;97362.16;18228958;32;20063;-61
2022/10/15 01:30:42;;;;;;;2.13;0.27;;;;;;;14.69;100.00;97348.56;18229611;32;20084;-62
2022/10/15 01:41:18;;;;;;;3.62;0.10;;;;;;;14.66;100.00;97330.94;18227958;32;20117;-61
2022/10/15 01:51:23;;;;;;;0.08;0.00;;;;;;;14.68;100.00;97326.00;18238883;32;20077;-62
2022/10/15 02:01:26;;;;;;;1.12;0.10;;;;;;;14.61;100.00;97300.25;18238460;32;20069;-62
2022/10/15 02:11:36;;;;;;;0.20;0.10;;;;;;;14.60;100.00;97304.13;18238269;32;20050;-62
2022/10/15 02:21:47;;;;;;;7.43;0.20;;;;;;;14.64;100.00;97300.50;18236494;32;20106;-62
2022/10/15 02:31:51;;;;;;;3.60;0.20;;;;;;;14.57;100.00;97317.19;18237522;32;20054;-62
2022/10/15 02:41:54;;;;;;;;;;;;;;;14.59;100.00;97316.91;18237042;32;20535;-62
2022/10/15 02:51:56;;;;;;;0.52;0.20;;;;;;;14.60;100.00;97315.00;18236670;32;20333;-62
2022/10/15 03:01:59;;;;;;;2.92;0.60;;;;;;;14.55;100.00;97319.44;18162722;32;20119;-62
2022/10/15 03:12:01;;;;;;;2.47;0.20;;;;;;;14.56;100.00;97326.47;18163301;32;20067;-62
2022/10/15 03:22:03;;;;;;;3.10;0.20;;;;;;;14.52;100.00;97325.47;18038810;32;20385;-61
2022/10/15 03:32:05;;;;;;;6.03;0.37;;;;;;;14.49;100.00;97317.91;18087188;32;20074;-61
2022/10/15 03:42:08;;;;;;;0.32;0.17;;;;;;;14.44;100.00;97333.53;18037604;32;20113;-61
2022/10/15 03:52:10;;;;;;;0.47;0.17;;;;;;;14.44;100.00;97330.81;17962808;32;20101;-61
2022/10/15 04:02:13;;;;;;;2.15;0.20;;;;;;;14.39;100.00;97334.47;17975775;33;20083;-62
2022/10/15 04:12:16;;;;;;;0.10;0.00;;;;;;;14.41;100.00;97329.50;17992868;32;20224;-62
2022/10/15 04:22:18;;;;;;;0.20;0.10;;;;;;;14.40;100.00;97322.47;18092431;32;20054;-61
2022/10/15 04:32:21;;;;;;;0.90;0.20;;;;;;;14.37;100.00;97344.81;18231869;32;20133;-61
2022/10/15 04:42:27;;;;;;;1.37;0.00;;;;;;;14.33;100.00;97347.34;18230111;32;20074;-61
2022/10/15 04:52:29;;;;;;;2.28;0.20;;;;;;;14.30;100.00;97350.66;18231234;32;20076;-62
2022/10/15 05:02:32;;;;;;;1.00;0.20;;;;;;;14.28;100.00;97369.22;18230414;32;20083;-61
2022/10/15 05:12:34;;;;;;;0.30;0.10;;;;;;;14.25;100.00;97367.06;18230291;32;20494;-61
2022/10/15 05:22:39;;;;;;;0.50;0.22;;;;;;;14.23;100.00;97364.66;18237324;32;20091;-62
2022/10/15 05:32:42;;;;;;;0.62;0.10;;;;;;;14.16;100.00;97366.97;18239962;32;20450;-62
2022/10/15 05:42:51;;;;;;;0.13;0.03;;;;;;;14.14;100.00;97369.22;18238229;32;20112;-62
2022/10/15 05:52:55;;;;;;;2.83;0.45;;;;;;;14.11;100.00;97379.87;18238954;32;20099;-62
2022/10/15 06:02:57;;;;;;;0.75;0.25;;;;;;;14.10;100.00;97383.69;18238828;32;20109;-62
2022/10/15 06:13:00;;;;;;;0.55;0.20;;;;;;;14.03;100.00;97401.22;18239033;32;20080;-62
2022/10/15 06:23:04;;;;;;;1.98;0.10;;;;;;;14.05;100.00;97403.63;18237717;32;20077;-61
2022/10/15 06:33:06;;;;;;;1.10;0.32;;;;;;;14.11;100.00;97407.06;18235298;32;20063;-62
2022/10/15 06:43:10;;;;;;;0.32;0.20;;;;;;;14.27;100.00;97429.34;18236855;32;20062;-61
2022/10/15 06:53:12;;;;;;;2.90;0.30;;;;;;;14.47;100.00;97431.69;18236224;32;20062;-62
2022/10/15 07:03:15;;;;;;;0.32;0.20;;;;;;;14.68;100.00;97453.09;18236215;32;20090;-62
2022/10/15 07:13:18;;;;;;;0.10;0.10;;;;;;;14.86;100.00;97463.06;18235779;32;20448;-62
2022/10/15 07:23:21;;;;;;;3.10;0.30;;;;;;;15.17;100.00;97465.16;18235197;32;20078;-61
2022/10/15 07:33:29;;;;;;;1.48;0.15;;;;;;;15.56;100.00;97466.47;18233762;32;20400;-62
2022/10/15 07:43:33;;;;;;;1.80;0.40;;;;;;;15.82;100.00;97468.63;18161522;32;20462;-62
2022/10/15 07:53:35;;;;;;;0.55;0.40;;;;;;;16.08;100.00;97481.66;18160950;32;20111;-62
2022/10/15 08:03:38;;;;;;;0.40;0.20;;;;;;;16.13;100.00;97499.78;18160817;32;20454;-62
2022/10/15 08:13:42;;;;;;;1.05;0.20;;;;;;;16.29;100.00;97497.50;18217704;32;20054;-62
2022/10/15 08:23:44;;;;;;;;;;;;;;;16.49;100.00;97491.53;18232324;32;20074;-62
2022/10/15 08:33:47;;;;;;;1.25;0.32;;;;;;;16.82;100.00;97493.91;18230979;32;19966;-62
2022/10/15 08:43:50;;;;;;;0.47;0.20;;;;;;;17.15;100.00;97511.91;18230159;32;20062;-62
2022/10/15 08:54:00;;;;;;;1.90;0.20;;;;;;;17.24;100.00;97524.47;18233392;32;20105;-62
2022/10/15 09:04:38;;;;;;;0.20;0.10;;;;;;;17.86;100.00;97524.56;18241324;32;20073;-62
2022/10/15 09:14:43;;;;;;;0.90;0.40;;;;;;;18.25;100.00;97520.88;18239723;32;20050;-62
2022/10/15 09:24:45;;;;;;;1.75;0.32;;;;;;;18.07;100.00;97522.00;18240202;32;20065;-62
2022/10/15 09:35:00;;;;;;;0.40;0.28;;;;;;;18.03;100.00;97519.09;18240009;32;20351;-62
2022/10/15 09:45:08;;;;;;;0.80;0.43;;;;;;;17.77;100.00;97524.53;18239493;32;20050;-62
2022/10/15 09:55:13;;;;;;;3.78;0.40;;;;;;;17.60;100.00;97528.88;18238854;32;20064;-62
2022/10/15 10:05:28;;;;;;;0.77;0.30;;;;;;;17.78;100.00;97512.47;18238360;32;20067;-62
2022/10/15 10:15:40;;;;;;;2.55;0.30;;;;;;;17.89;100.00;97518.44;18238519;32;20059;-61
2022/10/15 10:25:43;;;;;;;0.37;0.20;;;;;;;17.98;100.00;97510.25;18237721;32;20102;-62
2022/10/15 10:35:52;;;;;;;1.07;0.40;;;;;;;17.76;100.00;97531.13;18236108;32;20093;-62
2022/10/15 10:46:02;;;;;;;0.60;0.30;;;;;;;17.66;100.00;97521.31;18237041;32;20071;-61
2022/10/15 10:56:09;;;;;;;2.25;0.70;;;;;;;17.83;100.00;97515.06;18235255;32;20050;-62
2022/10/15 11:06:31;;;;;;;0.37;0.20;;;;;;;17.90;100.00;97525.53;18234877;32;20076;-61
2022/10/15 11:17:00;;;;;;;1.40;0.28;;;;;;;18.18;100.00;97515.06;18235208;32;20055;-61
2022/10/15 11:27:21;;;;;;;0.50;0.20;;;;;;;18.58;100.00;97505.81;18234004;32;20063;-61
2022/10/15 11:37:30;;;;;;;1.12;0.60;;;;;;;18.88;100.00;97509.44;18234862;32;20064;-61
2022/10/15 11:47:52;;;;;;;1.55;0.60;;;;;;;19.20;98.51;97499.00;18234381;32;20057;-62
2022/10/15 11:58:01;;;;;;;1.77;0.50;;;;;;;19.53;94.82;97483.75;18233376;32;20134;-62
2022/10/15 12:08:04;;;;;;;0.70;0.30;;;;;;;20.49;85.96;97488.44;18233120;32;20098;-62
2022/10/15 12:18:25;;;;;;;0.90;0.30;;;;;;;20.96;79.55;97488.06;18231774;32;20054;-62
2022/10/15 12:28:31;;;;;;;2.15;0.50;;;;;;;20.90;81.27;97486.72;18232477;32;20055;-62
2022/10/15 12:38:37;;;;;;;0.40;0.40;;;;;;;20.66;84.05;97479.19;18231926;32;20073;-62
2022/10/15 12:48:46;;;;;;;1.30;0.30;;;;;;;20.56;81.90;97471.41;18230271;32;20076;-62
2022/10/15 12:58:53;;;;;;;0.32;0.20;;;;;;;20.13;76.91;97459.72;18229406;32;20085;-61
2022/10/15 13:09:10;;;;;;;0.70;0.30;;;;;;;19.87;84.54;97452.56;18230856;32;20527;-61
2022/10/15 13:19:45;;;;;;;1.27;0.30;;;;;;;19.56;86.63;97455.69;18230230;32;20113;-61
2022/10/15 13:30:01;;;;;;;0.60;0.30;;;;;;;19.23;85.37;97464.63;18229509;32;20067;-61
2022/10/15 13:40:06;;;;;;;0.40;0.30;;;;;;;18.90;89.99;97437.91;18232184;32;20050;-61
2022/10/15 13:50:12;;;;;;;0.75;0.47;;;;;;;18.58;97.93;97457.34;18239342;32;20050;-62
2022/10/15 14:00:25;;;;;;;0.62;0.32;;;;;;;18.52;100.00;97475.06;18237386;32;20412;-61
2022/10/15 14:10:28;;;;;;;1.08;0.68;;;;;;;18.68;100.00;97472.59;18237393;32;20469;-61
2022/10/15 14:20:31;;;;;;;2.20;0.47;;;;;;;18.85;100.00;97463.50;18236729;32;20077;-61
2022/10/15 14:30:35;;;;;;;0.60;0.30;;;;;;;18.79;100.00;97448.41;18237517;32;20122;-61
2022/10/15 14:40:38;;;;;;;0.43;0.30;;;;;;;18.75;100.00;97444.72;18237028;32;20073;-61
2022/10/15 14:50:43;;;;;;;0.27;0.23;;;;;;;18.90;100.00;97452.38;18236430;32;20103;-61
2022/10/15 15:00:56;;;;;;;1.37;0.35;;;;;;;19.13;100.00;97461.13;18236157;32;20109;-61
2022/10/15 15:11:01;;;;;;;0.88;0.40;;;;;;;18.90;100.00;97452.38;18235848;32;20053;-62
2022/10/15 15:21:11;;;;;;;0.80;0.30;;;;;;;18.67;100.00;97440.06;18234290;32;20096;-62
2022/10/15 15:31:17;;;;;;;1.08;0.37;;;;;;;18.57;100.00;97444.78;18233843;32;20121;-61
2022/10/15 15:41:22;;;;;;;1.02;0.43;;;;;;;18.40;100.00;97448.34;18232989;32;20095;-61
2022/10/15 15:51:27;;;;;;;4.93;0.60;;;;;;;18.15;100.00;97450.03;18234221;32;20092;-61
2022/10/15 16:01:30;;;;;;;3.25;0.70;;;;;;;17.90;100.00;97474.34;18219863;32;20110;-61
2022/10/15 16:11:36;;;;;;;1.07;0.70;;;;;;;17.62;100.00;97473.88;18233329;32;20102;-61
2022/10/15 16:21:38;;;;;;;0.88;0.55;;;;;;;17.26;100.00;97483.16;18232744;32;20057;-61
2022/10/15 16:31:42;;;;;;;1.60;0.60;;;;;;;16.81;100.00;97492.28;18231093;32;20114;-61
2022/10/15 16:41:44;;;;;;;1.27;0.40;;;;;;;16.51;100.00;97502.94;18230439;32;20058;-61
2022/10/15 16:51:47;;;;;;;4.75;0.30;;;;;;;16.29;100.00;97498.28;18230198;32;20085;-61
2022/10/15 17:01:49;;;;;;;3.60;0.95;;;;;;;15.97;100.00;97508.34;18216726;32;20362;-61
2022/10/15 17:11:52;;;;;;;4.17;0.60;;;;;;;15.58;100.00;97523.37;18229247;32;20057;-61
2022/10/15 17:21:55;;;;;;;1.37;0.75;;;;;;;15.31;100.00;97518.81;18239972;32;20392;-61
2022/10/15 17:31:57;;;;;;;3.47;1.30;;;;;;;15.06;100.00;97534.53;18238957;32;20117;-61
2022/10/15 17:41:59;;;;;;;3.80;1.30;;;;;;;14.86;100.00;97536.53;18239810;32;20107;-61
2022/10/15 17:52:02;;;;;;;1.65;1.30;;;;;;;14.60;100.00;97528.03;18238383;32;20063;-61
2022/10/15 18:02:04;;;;;;;5.70;1.35;;;;;;;14.36;100.00;97528.16;18238727;32;20076;-61
2022/10/15 18:12:07;;;;;;;3.55;2.10;;;;;;;14.20;100.00;97522.19;18238627;32;20058;-61
2022/10/15 18:22:10;;;;;;;9.60;2.70;;;;;;;14.06;100.00;97520.22;18237926;32;20336;-61
2022/10/15 18:32:12;;;;;;;3.53;1.55;;;;;;;13.96;100.00;97527.72;18236220;32;20063;-61
2022/10/15 18:42:15;;;;;;;1.85;1.27;;;;;;;13.89;100.00;97530.81;18236021;32;20117;-61
2022/10/15 18:52:17;;;;;;;2.33;1.10;;;;;;;13.82;100.00;97520.31;18235576;32;20402;-60
2022/10/15 19:02:40;;;;;;;2.80;1.50;;;;;;;13.69;100.00;97521.03;18235526;32;20047;-61
2022/10/15 19:12:42;;;;;;;3.37;1.75;;;;;;;13.59;100.00;97523.91;18236149;32;20163;-61
2022/10/15 19:22:46;;;;;;;6.35;3.55;;;;;;;13.48;100.00;97543.06;18234293;32;20046;-61
2022/10/15 19:32:48;;;;;;;6.35;3.80;;;;;;;13.47;100.00;97536.03;18234938;32;20080;-61
2022/10/15 19:42:51;;;;;;;4.80;3.67;;;;;;;13.45;100.00;97551.00;18233912;32;20074;-61
2022/10/15 19:52:53;;;;;;;4.62;2.05;;;;;;;13.41;100.00;97572.50;18232806;32;20065;-61
2022/10/15 20:02:56;;;;;;;3.85;1.80;;;;;;;13.38;100.00;97556.78;18234039;32;20065;-61
2022/10/15 20:12:59;;;;;;;4.03;1.80;;;;;;;13.41;100.00;97563.56;18233395;32;20117;-61
2022/10/15 20:23:02;;;;;;;3.28;2.00;;;;;;;13.42;100.00;97571.41;18232603;32;20490;-61
2022/10/15 20:33:07;;;;;;;2.40;1.93;;;;;;;13.27;100.00;97596.81;18232270;32;20062;-61
2022/10/15 20:43:09;;;;;;;3.33;2.62;;;;;;;13.14;100.00;97592.87;18231708;32;20054;-61
2022/10/15 20:53:13;;;;;;;3.58;2.28;;;;;;;13.09;100.00;97603.78;18237388;32;20054;-61
2022/10/15 21:03:15;;;;;;;3.20;2.40;;;;;;;13.02;100.00;97601.41;18241849;32;20050;-61
2022/10/15 21:13:18;;;;;;;6.65;2.20;;;;;;;12.92;100.00;97596.09;18240905;32;20046;-61
2022/10/15 21:23:21;;;;;;;3.03;2.03;;;;;;;12.80;100.00;97607.34;18239946;32;20046;-60
2022/10/15 21:33:23;;;;;;;4.95;2.00;;;;;;;12.75;100.00;97596.53;18240730;32;20054;-61
2022/10/15 21:43:27;;;;;;;7.35;3.40;;;;;;;12.73;100.00;97593.31;18230576;32;20066;-60
2022/10/15 21:53:30;;;;;;;2.12;1.92;;;;;;;12.71;100.00;97595.47;18229965;32;20545;-61
2022/10/15 22:03:32;;;;;;;3.95;2.35;;;;;;;12.66;100.00;97609.91;18229131;32;20465;-61
2022/10/15 22:13:35;;;;;;;2.37;1.87;;;;;;;12.57;100.00;97617.03;18236450;32;20109;-60
2022/10/15 22:23:38;;;;;;;2.53;1.90;;;;;;;12.52;100.00;97623.28;18237982;32;20446;-60
2022/10/15 22:33:40;;;;;;;4.65;1.73;;;;;;;12.56;100.00;97626.25;18237505;32;20500;-62
2022/10/15 22:43:43;;;;;;;5.70;1.92;;;;;;;12.64;100.00;97639.22;18237304;32;20091;-62
2022/10/15 22:53:45;;;;;;;4.00;2.08;;;;;;;12.71;100.00;97650.53;18235579;32;20050;-63
2022/10/15 23:03:50;;;;;;;2.55;1.85;;;;;;;12.77;100.00;97645.91;18235061;32;20051;-63
2022/10/15 23:13:58;;;;;;;4.32;2.10;;;;;;;12.76;100.00;97647.00;18235678;32;20054;-63
2022/10/15 23:24:02;;;;;;;1.55;1.15;;;;;;;12.79;100.00;97641.00;18235568;32;20054;-63
2022/10/15 23:34:05;;;;;;;1.87;1.50;;;;;;;12.81;100.00;97641.53;18235329;32;20114;-63
2022/10/15 23:44:08;;;;;;;6.95;1.75;;;;;;;12.80;100.00;97641.78;18234418;32;20129;-62
2022/10/15 23:54:16;;;;;;;5.15;2.00;;;;;;;12.82;100.00;97643.13;18234044;32;20053;-63
